Albuquerque, NM (87120)

7:28 PM MST on February 10, 2016 (GMT -0700)
Alban Hills (Winn) | | Change Station
CLOSE
Current Station
Personal Weather Station
Location: Albuquerque, NM
Elevation: 5026 ft
Nearby Weather Stations

Elev 5026 ft 35.17 °N, 106.68 °W | Updated 2 seconds ago

Clear
Clear
54.4 °F
Feels Like 54.4 °F
N
0.7
Wind Variable Wind from SSE
Gusts 3.8 mph

Today
High -- | Low -- °F
--% Chance of Precip.
Yesterday
High -- | Low -- °F
Precip. -- in
Pressure 30.26 in
Visibility 10.0 miles
Clouds Few 25000 ft
Dew Point 22 °F
Humidity 28%
Rainfall in
Snow Depth Not available.
6:58 AM 5:44 PM
Waxing Crescent, 8% visible
METAR KABQ 110152Z 00000KT 10SM FEW250 11/M09 A3030 RMK AO2 SLP247 T01111094
Pressure 30.26 in
Visibility 10.0 miles
Clouds Few 25000 ft
Dew Point 22 °F
Humidity 28%
Rainfall in
Snow Depth Not available.
6:58 AM 5:44 PM
Waxing Crescent, 8% visible
METAR KABQ 110152Z 00000KT 10SM FEW250 11/M09 A3030 RMK AO2 SLP247 T01111094

10-Day Weather Forecast

Almanac

Astronomy

Feb. 10, 2016 Rise Set
Actual Time
Civil Twilight
Nautical Twilight
Astronomical Twilight
Moon
Length of Visible Light
Length of Day
Tomorrow will be .
, % of the Moon is Illuminated

Today's Extremes

State Highs State Lows

Community

WunderPhotos

Upload Photos

1,891,984 photos uploaded!

WunderBlog® & News

Nearby

Air Quality

  Air Quality AQ Index Pollutant
Not available.

Snow Depth

Station Depth Elevation

Earthquake Activity

City Distance Mag. Time & Date
Minimum magnitude displayed is 2.5.

Coastal Water Temperatures

Place Temperature

Stations

Nearby Weather Stations

Station Location Temp. Windchill Dew Point Humidity Wind Precip. Elev Updated Type
                   

Watches & Warnings

There are currently no watches in effect.